createdAt,value
2023-03-15T00:00:23.067Z,53.11
2023-03-15T00:03:10.334Z,52.69
2023-03-15T00:05:37.245Z,52.08
2023-03-15T00:08:04.687Z,51.99
2023-03-15T00:10:31.560Z,52.07
2023-03-15T00:12:58.337Z,50.91
2023-03-15T00:15:25.171Z,51.51
2023-03-15T00:17:52.017Z,52.83
2023-03-15T00:20:19.482Z,53.67
2023-03-15T00:22:46.342Z,53.89
2023-03-15T00:25:13.155Z,53.94
2023-03-15T00:27:40.025Z,54.48
2023-03-15T00:30:07.144Z,54.40
2023-03-15T00:32:33.931Z,54.18
2023-03-15T00:35:02.822Z,54.33
2023-03-15T00:37:30.896Z,54.76
2023-03-15T00:39:57.818Z,55.03
2023-03-15T00:42:27.009Z,55.24
2023-03-15T00:44:56.742Z,55.41
2023-03-15T00:47:23.766Z,55.40
2023-03-15T00:49:50.537Z,55.84
2023-03-15T00:52:17.673Z,55.59
2023-03-15T00:54:55.111Z,55.67
2023-03-15T00:57:22.468Z,55.53
2023-03-15T00:59:49.625Z,55.63
2023-03-15T01:02:17.499Z,54.64
2023-03-15T01:04:45.345Z,54.08
2023-03-15T01:07:12.181Z,53.82
2023-03-15T01:09:39.165Z,53.99
2023-03-15T01:12:06.115Z,53.39
2023-03-15T01:14:35.331Z,53.56
2023-03-15T01:17:02.267Z,53.39
2023-03-15T01:19:29.096Z,53.34
2023-03-15T01:21:56.080Z,53.43
2023-03-15T01:24:22.971Z,53.75
2023-03-15T01:26:50.344Z,53.55
2023-03-15T01:29:17.446Z,55.36
2023-03-15T01:31:44.446Z,55.45
2023-03-15T01:34:11.363Z,55.29
2023-03-15T01:36:38.389Z,54.40
2023-03-15T01:39:05.438Z,55.04
2023-03-15T01:41:41.216Z,54.85
2023-03-15T01:44:15.188Z,58.03
2023-03-15T01:46:42.675Z,57.24
2023-03-15T01:49:25.245Z,58.01
2023-03-15T01:51:58.097Z,57.55
2023-03-15T01:54:33.516Z,57.32
2023-03-15T01:57:04.555Z,57.38
2023-03-15T01:59:33.066Z,57.89
2023-03-15T02:02:00.410Z,57.34
2023-03-15T02:04:33.997Z,57.67
2023-03-15T02:07:02.889Z,58.38
2023-03-15T02:09:37.449Z,58.54
2023-03-15T02:12:04.599Z,59.27
2023-03-15T02:14:31.988Z,58.73
2023-03-15T02:16:59.401Z,59.37
2023-03-15T02:19:33.510Z,59.95
2023-03-15T02:22:06.399Z,58.61
2023-03-15T02:24:54.435Z,58.13
2023-03-15T02:27:34.552Z,56.76
2023-03-15T02:30:03.456Z,56.16
2023-03-15T02:32:30.506Z,57.10
2023-03-15T02:34:57.547Z,58.15
2023-03-15T02:37:24.461Z,58.68
2023-03-15T02:39:53.120Z,59.27
2023-03-15T02:42:20.178Z,59.23
2023-03-15T02:44:48.164Z,58.03
2023-03-15T02:47:18.437Z,60.25
2023-03-15T02:49:48.726Z,59.58
2023-03-15T02:52:16.064Z,59.55
2023-03-15T02:54:43.191Z,58.99
2023-03-15T02:57:11.215Z,58.99
2023-03-15T02:59:38.785Z,58.99
2023-03-15T03:02:05.672Z,59.32
2023-03-15T03:04:32.553Z,59.48
2023-03-15T03:06:59.633Z,59.48
2023-03-15T03:09:32.536Z,59.05
2023-03-15T03:11:59.426Z,59.23
2023-03-15T03:14:27.010Z,59.12
2023-03-15T03:16:54.029Z,59.28
2023-03-15T03:19:25.107Z,59.56
2023-03-15T03:21:56.353Z,59.63
2023-03-15T03:24:25.292Z,59.68
2023-03-15T03:26:57.319Z,59.58
2023-03-15T03:29:25.714Z,59.12
2023-03-15T03:31:53.263Z,59.19
2023-03-15T03:34:20.858Z,59.17
2023-03-15T03:36:50.685Z,59.68
2023-03-15T03:39:23.015Z,59.70
2023-03-15T03:41:50.073Z,60.50
2023-03-15T03:44:17.443Z,60.24
2023-03-15T03:46:44.746Z,59.33
2023-03-15T03:49:14.196Z,58.97
2023-03-15T03:51:40.968Z,58.05
2023-03-15T03:54:07.718Z,57.87
2023-03-15T03:56:35.045Z,57.84
2023-03-15T03:59:02.006Z,57.37
2023-03-15T04:01:39.129Z,57.12
2023-03-15T04:04:06.132Z,57.28
2023-03-15T04:06:33.354Z,57.24
2023-03-15T04:09:02.208Z,57.04
2023-03-15T04:11:35.693Z,57.04
2023-03-15T04:14:05.606Z,57.06
2023-03-15T04:16:33.271Z,56.95
2023-03-15T04:19:03.807Z,57.11
2023-03-15T04:21:32.801Z,57.48
2023-03-15T04:24:14.177Z,57.18
2023-03-15T04:27:05.790Z,57.14
2023-03-15T04:29:52.971Z,57.57
2023-03-15T04:32:39.360Z,58.21
2023-03-15T04:35:15.472Z,58.64
2023-03-15T04:37:52.653Z,58.79
2023-03-15T04:40:42.318Z,58.58
2023-03-15T04:43:25.145Z,58.53
2023-03-15T04:46:07.841Z,58.76
2023-03-15T04:48:53.469Z,58.80
2023-03-15T04:51:38.997Z,58.88
2023-03-15T04:54:27.399Z,58.85
2023-03-15T04:56:54.284Z,59.26
2023-03-15T04:59:40.572Z,59.40
2023-03-15T05:02:41.004Z,59.68
2023-03-15T05:05:22.973Z,59.95
2023-03-15T05:07:58.573Z,59.81
2023-03-15T05:10:44.722Z,59.84
2023-03-15T05:13:30.240Z,59.99
2023-03-15T05:16:10.372Z,59.86
2023-03-15T05:19:15.977Z,59.22
2023-03-15T05:22:03.831Z,56.78
2023-03-15T05:24:41.936Z,59.23
2023-03-15T05:27:21.162Z,59.41
2023-03-15T05:30:17.028Z,60.25
2023-03-15T05:33:04.664Z,59.45
2023-03-15T05:35:31.565Z,59.62
2023-03-15T05:38:15.990Z,59.83
2023-03-15T05:41:01.457Z,60.03
2023-03-15T05:43:51.464Z,60.09
2023-03-15T05:46:38.637Z,60.35
2023-03-15T05:49:31.884Z,60.56
2023-03-15T05:52:22.132Z,60.69
2023-03-15T05:54:59.583Z,60.45
2023-03-15T05:57:49.606Z,60.28
2023-03-15T06:00:39.388Z,60.13
2023-03-15T06:03:10.613Z,59.79
2023-03-15T06:05:46.577Z,59.40
2023-03-15T06:08:16.035Z,58.73
2023-03-15T06:10:45.110Z,58.27
2023-03-15T06:13:12.125Z,57.98
2023-03-15T06:15:39.937Z,57.86
2023-03-15T06:18:07.773Z,57.77
2023-03-15T06:20:34.856Z,57.13
2023-03-15T06:23:06.601Z,57.74
2023-03-15T06:25:41.650Z,57.99
2023-03-15T06:28:08.582Z,56.86
2023-03-15T06:30:36.498Z,58.17
2023-03-15T06:33:03.451Z,58.78
2023-03-15T06:35:30.582Z,58.83
2023-03-15T06:37:57.881Z,58.69
2023-03-15T06:40:25.151Z,58.69
2023-03-15T06:42:54.047Z,58.36
2023-03-15T06:45:21.462Z,58.19
2023-03-15T06:47:48.632Z,58.91
2023-03-15T06:50:18.820Z,58.62
2023-03-15T06:52:48.861Z,58.17
2023-03-15T06:55:19.383Z,58.49
2023-03-15T06:57:47.270Z,57.18
2023-03-15T07:00:14.831Z,56.93
2023-03-15T07:02:43.584Z,57.17
2023-03-15T07:05:13.438Z,56.48
2023-03-15T07:07:40.507Z,55.06
2023-03-15T07:10:10.049Z,55.45
2023-03-15T07:12:37.054Z,55.45
2023-03-15T07:15:04.030Z,55.08
2023-03-15T07:17:30.860Z,55.30
2023-03-15T07:19:57.638Z,54.58
2023-03-15T07:22:24.438Z,54.73
2023-03-15T07:24:51.319Z,54.44
2023-03-15T07:27:19.445Z,54.28
2023-03-15T07:29:46.602Z,53.53
2023-03-15T07:32:13.603Z,53.23
2023-03-15T07:34:40.551Z,53.15
2023-03-15T07:37:07.436Z,53.98
2023-03-15T07:39:34.256Z,53.97
2023-03-15T07:42:01.099Z,53.90
2023-03-15T07:44:32.438Z,53.87
2023-03-15T07:46:59.418Z,54.26
2023-03-15T07:49:26.273Z,54.19
2023-03-15T07:51:53.211Z,53.83
2023-03-15T07:54:20.477Z,53.28
2023-03-15T07:56:47.388Z,54.03
2023-03-15T07:59:15.158Z,54.67
2023-03-15T08:01:42.106Z,54.53
2023-03-15T08:04:09.155Z,54.36
2023-03-15T08:06:36.076Z,53.69
2023-03-15T08:09:05.207Z,54.09
2023-03-15T08:11:32.897Z,54.68
2023-03-15T08:14:00.280Z,54.14
2023-03-15T08:16:27.245Z,54.81
2023-03-15T08:18:54.271Z,55.20
2023-03-15T08:21:21.644Z,54.80
2023-03-15T08:23:48.567Z,54.22
2023-03-15T08:26:15.335Z,54.07
2023-03-15T08:28:42.076Z,54.26
2023-03-15T08:31:09.199Z,53.11
2023-03-15T08:33:36.052Z,53.62
2023-03-15T08:36:03.136Z,53.25
2023-03-15T08:38:30.403Z,53.31
2023-03-15T08:40:57.342Z,53.05
2023-03-15T08:43:24.480Z,53.30
2023-03-15T08:46:00.806Z,54.17
2023-03-15T08:48:28.553Z,53.49
2023-03-15T08:50:56.488Z,53.54
2023-03-15T08:53:23.335Z,53.38
2023-03-15T08:55:50.334Z,52.86
2023-03-15T08:58:20.825Z,52.57
2023-03-15T09:00:48.653Z,52.33
2023-03-15T09:03:16.290Z,51.92
2023-03-15T09:05:43.742Z,51.96
2023-03-15T09:08:10.794Z,51.87
2023-03-15T09:10:37.742Z,51.38
2023-03-15T09:13:04.686Z,51.50
2023-03-15T09:15:31.517Z,51.53
2023-03-15T09:17:58.320Z,52.11
2023-03-15T09:20:27.654Z,52.73
2023-03-15T09:22:55.947Z,52.82
2023-03-15T09:25:23.464Z,52.86
2023-03-15T09:27:50.444Z,52.96
2023-03-15T09:30:18.136Z,52.75
2023-03-15T09:32:45.650Z,52.90
2023-03-15T09:35:14.087Z,53.23
2023-03-15T09:37:41.930Z,52.95
2023-03-15T09:40:31.832Z,53.10
2023-03-15T09:42:58.850Z,52.57
2023-03-15T09:45:49.474Z,52.78
2023-03-15T09:48:16.432Z,52.51
2023-03-15T09:50:46.655Z,52.20
2023-03-15T09:53:21.197Z,51.67
2023-03-15T09:55:48.841Z,51.67
2023-03-15T09:58:18.961Z,51.50
2023-03-15T10:00:57.908Z,51.20
2023-03-15T10:03:39.301Z,50.92
2023-03-15T10:06:26.663Z,48.42
2023-03-15T10:08:55.696Z,49.88
2023-03-15T10:11:25.104Z,50.57
2023-03-15T10:13:55.215Z,50.53
2023-03-15T10:16:38.033Z,50.31
2023-03-15T10:19:24.231Z,50.14
2023-03-15T10:21:56.595Z,49.85
2023-03-15T10:24:29.786Z,49.95
2023-03-15T10:26:59.027Z,49.62
2023-03-15T10:29:26.983Z,49.33
2023-03-15T10:31:54.357Z,49.06
2023-03-15T10:34:22.404Z,49.46
2023-03-15T10:36:53.952Z,49.43
2023-03-15T10:39:21.620Z,49.27
2023-03-15T10:41:49.904Z,49.15
2023-03-15T10:44:19.669Z,49.19
2023-03-15T10:47:04.861Z,49.49
2023-03-15T10:49:37.868Z,49.87
2023-03-15T10:52:05.434Z,49.71
2023-03-15T10:54:33.743Z,49.39
2023-03-15T10:57:05.628Z,49.84
2023-03-15T10:59:33.925Z,49.92
2023-03-15T11:02:13.603Z,49.66
2023-03-15T11:04:47.203Z,49.94
2023-03-15T11:07:14.157Z,50.27
2023-03-15T11:09:45.307Z,50.26
2023-03-15T11:12:20.763Z,50.59
2023-03-15T11:14:49.750Z,50.32
2023-03-15T11:17:17.025Z,50.12
2023-03-15T11:19:49.378Z,50.14
2023-03-15T11:22:16.432Z,50.15
2023-03-15T11:24:43.512Z,50.05
2023-03-15T11:27:13.505Z,50.55
2023-03-15T11:29:43.131Z,50.80
2023-03-15T11:32:15.288Z,50.41
2023-03-15T11:34:50.629Z,50.28
2023-03-15T11:37:21.059Z,50.30
2023-03-15T11:40:01.585Z,50.21
2023-03-15T11:42:54.465Z,50.12
2023-03-15T11:45:24.342Z,49.95
2023-03-15T11:47:54.180Z,50.05
2023-03-15T11:50:21.000Z,50.03
2023-03-15T11:52:48.933Z,49.99
2023-03-15T11:55:26.009Z,50.00
2023-03-15T11:57:53.925Z,50.17
2023-03-15T12:00:26.234Z,50.09
2023-03-15T12:02:55.823Z,49.91
2023-03-15T12:05:41.340Z,49.57
2023-03-15T12:08:18.421Z,50.03
2023-03-15T12:10:46.631Z,51.85
2023-03-15T12:13:18.162Z,52.54
2023-03-15T12:15:46.503Z,53.56
2023-03-15T12:18:15.748Z,54.98
2023-03-15T12:20:49.126Z,56.53
2023-03-15T12:23:18.773Z,56.86
2023-03-15T12:25:54.752Z,55.57
2023-03-15T12:28:35.114Z,56.53
2023-03-15T12:31:03.778Z,57.91
2023-03-15T12:33:31.987Z,58.77
2023-03-15T12:36:00.361Z,59.45
2023-03-15T12:38:32.996Z,60.10
2023-03-15T12:41:00.251Z,57.94
2023-03-15T12:43:42.609Z,59.32
2023-03-15T12:46:28.562Z,57.47
2023-03-15T12:49:12.680Z,57.28
2023-03-15T12:51:53.088Z,59.28
2023-03-15T12:54:21.974Z,59.97
2023-03-15T12:56:53.895Z,62.41
2023-03-15T12:59:20.814Z,65.03
2023-03-15T13:01:47.949Z,66.19
2023-03-15T13:04:15.165Z,62.89
2023-03-15T13:06:44.875Z,61.81
2023-03-15T13:09:22.116Z,65.51
2023-03-15T13:12:08.201Z,64.81
2023-03-15T13:14:54.509Z,65.86
2023-03-15T13:17:44.663Z,62.70
2023-03-15T13:20:23.853Z,67.08
2023-03-15T13:23:05.770Z,66.69
2023-03-15T13:25:37.274Z,69.10
2023-03-15T13:28:17.782Z,68.17
2023-03-15T13:30:49.009Z,68.86
2023-03-15T13:33:29.413Z,68.80
2023-03-15T13:36:16.536Z,67.44
2023-03-15T13:38:44.857Z,66.28
2023-03-15T13:41:22.352Z,67.56
2023-03-15T13:43:50.835Z,68.30
2023-03-15T13:46:19.166Z,67.13
2023-03-15T13:48:46.829Z,67.37
2023-03-15T13:51:25.401Z,64.68
2023-03-15T13:53:54.705Z,66.92
2023-03-15T13:56:29.441Z,70.01
2023-03-15T13:58:57.616Z,67.63
2023-03-15T14:01:25.783Z,65.55
2023-03-15T14:03:56.122Z,64.16
2023-03-15T14:06:24.735Z,65.62
2023-03-15T14:08:59.953Z,67.57
2023-03-15T14:11:37.153Z,64.72
2023-03-15T14:14:24.480Z,66.03
2023-03-15T14:17:04.181Z,64.81
2023-03-15T14:19:32.851Z,67.93
2023-03-15T14:22:01.155Z,67.86
2023-03-15T14:24:33.350Z,68.34
2023-03-15T14:27:01.722Z,68.79
2023-03-15T14:29:30.167Z,67.89
2023-03-15T14:32:05.282Z,72.73
2023-03-15T14:34:37.240Z,71.71
2023-03-15T14:37:09.621Z,68.64
2023-03-15T14:39:41.286Z,68.54
2023-03-15T14:42:11.643Z,70.24
2023-03-15T14:44:38.434Z,72.45
2023-03-15T14:47:13.634Z,71.46
2023-03-15T14:49:40.519Z,68.49
2023-03-15T14:52:07.646Z,68.19
2023-03-15T14:54:34.573Z,68.25
2023-03-15T14:57:01.311Z,67.36
2023-03-15T14:59:28.141Z,68.51
2023-03-15T15:01:57.684Z,69.43
2023-03-15T15:04:29.450Z,68.44
2023-03-15T15:06:57.368Z,69.47
2023-03-15T15:09:27.739Z,72.44
2023-03-15T15:11:54.887Z,73.54
2023-03-15T15:14:22.258Z,70.93
2023-03-15T15:16:49.742Z,71.54
2023-03-15T15:19:16.642Z,73.81
2023-03-15T15:21:43.738Z,73.18
2023-03-15T15:24:18.144Z,71.57
2023-03-15T15:26:45.022Z,72.26
2023-03-15T15:29:14.106Z,72.49
2023-03-15T15:31:41.483Z,72.29
2023-03-15T15:34:09.178Z,75.16
2023-03-15T15:36:37.864Z,75.32
2023-03-15T15:39:10.689Z,74.89
2023-03-15T15:41:37.488Z,73.65
2023-03-15T15:44:09.604Z,71.88
2023-03-15T15:46:36.316Z,71.61
2023-03-15T15:49:03.512Z,72.44
2023-03-15T15:51:31.901Z,70.76
2023-03-15T15:53:59.728Z,71.97
2023-03-15T15:56:30.022Z,74.34
2023-03-15T15:58:57.102Z,71.16
2023-03-15T16:01:24.663Z,71.71
2023-03-15T16:03:51.512Z,72.62
2023-03-15T16:06:20.142Z,73.76
2023-03-15T16:08:48.726Z,71.98
2023-03-15T16:11:15.951Z,70.80
2023-03-15T16:13:44.825Z,70.82
2023-03-15T16:16:15.795Z,70.61
2023-03-15T16:18:43.608Z,73.45
2023-03-15T16:21:33.068Z,77.30
2023-03-15T16:24:12.009Z,73.27
2023-03-15T16:26:39.166Z,73.05
2023-03-15T16:29:17.198Z,73.69
2023-03-15T16:31:44.034Z,74.38
2023-03-15T16:34:11.966Z,75.24
2023-03-15T16:36:43.186Z,76.01
2023-03-15T16:39:13.822Z,77.15
2023-03-15T16:41:41.324Z,75.77
2023-03-15T16:44:12.407Z,77.11
2023-03-15T16:46:39.699Z,75.68
2023-03-15T16:49:06.708Z,74.90
2023-03-15T16:51:34.253Z,74.60
2023-03-15T16:54:15.023Z,72.41
2023-03-15T16:56:47.837Z,70.76
2023-03-15T16:59:16.178Z,71.06
2023-03-15T17:01:43.837Z,71.17
2023-03-15T17:04:11.774Z,73.19
2023-03-15T17:06:38.658Z,71.89
2023-03-15T17:09:10.870Z,71.63
2023-03-15T17:11:39.492Z,71.66
2023-03-15T17:14:07.243Z,71.55
2023-03-15T17:16:34.083Z,74.68
2023-03-15T17:19:01.051Z,72.98
2023-03-15T17:21:29.486Z,73.94
2023-03-15T17:23:56.396Z,74.07
2023-03-15T17:26:23.940Z,74.19
2023-03-15T17:28:50.847Z,74.12
2023-03-15T17:31:25.127Z,74.10
2023-03-15T17:33:52.298Z,74.30
2023-03-15T17:36:20.812Z,74.33
2023-03-15T17:38:47.966Z,74.28
2023-03-15T17:41:20.725Z,74.28
2023-03-15T17:43:48.615Z,74.30
2023-03-15T17:46:17.077Z,74.80
2023-03-15T17:48:43.988Z,77.02
2023-03-15T17:51:15.187Z,77.38
2023-03-15T17:53:41.969Z,76.04
2023-03-15T17:56:09.129Z,75.85
2023-03-15T17:58:36.021Z,75.61
2023-03-15T18:01:04.105Z,75.43
2023-03-15T18:03:31.291Z,74.91
2023-03-15T18:06:01.020Z,76.25
2023-03-15T18:08:27.884Z,76.51
2023-03-15T18:10:54.919Z,76.29
2023-03-15T18:13:22.865Z,77.22
2023-03-15T18:15:50.774Z,79.10
2023-03-15T18:18:18.147Z,76.80
2023-03-15T18:20:45.530Z,76.17
2023-03-15T18:23:14.339Z,76.47
2023-03-15T18:25:42.603Z,76.80
2023-03-15T18:28:10.120Z,75.13
2023-03-15T18:30:36.976Z,75.30
2023-03-15T18:33:05.294Z,74.41
2023-03-15T18:35:33.569Z,74.03
2023-03-15T18:38:00.670Z,73.58
2023-03-15T18:40:29.025Z,73.73
2023-03-15T18:42:56.686Z,75.08
2023-03-15T18:45:34.183Z,75.06
2023-03-15T18:48:01.570Z,74.99
2023-03-15T18:50:29.056Z,75.40
2023-03-15T18:52:56.599Z,76.07
2023-03-15T18:55:23.545Z,76.05
2023-03-15T18:57:52.214Z,76.59
2023-03-15T19:00:25.375Z,76.16
2023-03-15T19:02:56.935Z,76.32
2023-03-15T19:05:25.311Z,76.41
2023-03-15T19:07:52.391Z,76.75
2023-03-15T19:10:20.206Z,77.28
2023-03-15T19:12:47.846Z,75.97
2023-03-15T19:15:16.832Z,75.66
2023-03-15T19:17:44.870Z,73.61
2023-03-15T19:20:12.817Z,72.45
2023-03-15T19:22:40.910Z,73.38
2023-03-15T19:25:10.868Z,73.68
2023-03-15T19:27:37.708Z,71.62
2023-03-15T19:30:06.172Z,71.99
2023-03-15T19:32:34.290Z,72.08
2023-03-15T19:35:01.228Z,74.90
2023-03-15T19:37:28.055Z,73.96
2023-03-15T19:39:54.925Z,73.49
2023-03-15T19:42:21.753Z,73.99
2023-03-15T19:44:48.604Z,74.91
2023-03-15T19:47:15.356Z,76.84
2023-03-15T19:49:42.371Z,73.98
2023-03-15T19:52:09.297Z,74.96
2023-03-15T19:54:36.053Z,73.39
2023-03-15T19:57:02.928Z,73.07
2023-03-15T19:59:29.698Z,73.68
2023-03-15T20:01:56.558Z,73.02
2023-03-15T20:04:23.399Z,73.59
2023-03-15T20:06:50.183Z,74.84
2023-03-15T20:09:17.063Z,75.05
2023-03-15T20:11:43.861Z,77.53
2023-03-15T20:14:10.787Z,79.21
2023-03-15T20:16:37.613Z,76.81
2023-03-15T20:19:04.557Z,77.79
2023-03-15T20:21:31.491Z,78.67
2023-03-15T20:23:58.330Z,78.10
2023-03-15T20:26:25.066Z,79.72
2023-03-15T20:28:52.135Z,85.85
2023-03-15T20:31:19.277Z,82.20
2023-03-15T20:33:48.572Z,81.46
2023-03-15T20:36:15.864Z,80.89
2023-03-15T20:38:42.959Z,80.45
2023-03-15T20:41:13.333Z,80.55
2023-03-15T20:43:40.645Z,80.51
2023-03-15T20:46:09.256Z,80.51
2023-03-15T20:48:36.323Z,79.82
2023-03-15T20:51:03.933Z,78.46
2023-03-15T20:53:32.163Z,77.09
2023-03-15T20:55:59.057Z,78.00
2023-03-15T20:58:26.290Z,78.95
2023-03-15T21:01:02.054Z,79.41
2023-03-15T21:03:30.965Z,79.20
2023-03-15T21:05:57.787Z,78.21
2023-03-15T21:08:24.583Z,76.59
2023-03-15T21:10:52.120Z,77.55
2023-03-15T21:13:19.383Z,76.83
2023-03-15T21:15:46.276Z,76.98
2023-03-15T21:18:17.153Z,76.68
2023-03-15T21:20:44.039Z,76.67
2023-03-15T21:23:11.268Z,76.77
2023-03-15T21:25:38.225Z,76.78
2023-03-15T21:28:05.112Z,77.07
2023-03-15T21:30:32.468Z,76.87
2023-03-15T21:32:59.591Z,76.89
2023-03-15T21:35:26.439Z,76.74
2023-03-15T21:37:53.336Z,76.82
2023-03-15T21:40:20.281Z,77.20
2023-03-15T21:42:47.159Z,76.57
2023-03-15T21:45:14.088Z,76.31
2023-03-15T21:47:41.151Z,75.68
2023-03-15T21:50:08.548Z,75.25
2023-03-15T21:52:35.340Z,75.10
2023-03-15T21:55:02.172Z,75.37
2023-03-15T21:57:29.010Z,75.53
2023-03-15T21:59:55.911Z,75.32
2023-03-15T22:02:22.768Z,74.90
2023-03-15T22:04:49.713Z,74.39
2023-03-15T22:07:16.790Z,74.49
2023-03-15T22:09:43.620Z,74.04
2023-03-15T22:12:10.508Z,74.04
2023-03-15T22:14:37.404Z,74.36
2023-03-15T22:17:04.313Z,74.10
2023-03-15T22:19:31.497Z,74.03
2023-03-15T22:21:58.578Z,73.96
2023-03-15T22:24:25.402Z,74.01
2023-03-15T22:26:52.691Z,74.33
2023-03-15T22:29:19.916Z,74.10
2023-03-15T22:31:46.871Z,73.79
2023-03-15T22:34:13.714Z,74.00
2023-03-15T22:36:42.309Z,73.92
2023-03-15T22:39:09.511Z,73.82
2023-03-15T22:41:36.556Z,73.70
2023-03-15T22:44:03.516Z,73.54
2023-03-15T22:46:34.436Z,74.01
2023-03-15T22:49:02.065Z,73.70
2023-03-15T22:51:29.538Z,72.86
2023-03-15T22:53:56.453Z,72.92
2023-03-15T22:56:23.329Z,72.63
2023-03-15T22:58:51.548Z,73.22
2023-03-15T23:01:19.125Z,73.17
2023-03-15T23:03:46.043Z,73.01
2023-03-15T23:06:13.782Z,73.24
2023-03-15T23:08:40.924Z,73.09
2023-03-15T23:11:07.918Z,73.15
2023-03-15T23:13:34.739Z,72.67
2023-03-15T23:16:04.382Z,72.73
2023-03-15T23:18:34.285Z,72.78
2023-03-15T23:21:08.475Z,72.66
2023-03-15T23:23:35.278Z,72.65
2023-03-15T23:26:02.253Z,72.65
2023-03-15T23:28:29.293Z,72.49
2023-03-15T23:31:00.153Z,72.58
2023-03-15T23:33:27.479Z,72.07
2023-03-15T23:35:54.602Z,72.16
2023-03-15T23:38:21.464Z,72.25
2023-03-15T23:40:54.805Z,72.12
2023-03-15T23:43:21.658Z,73.04
2023-03-15T23:45:48.797Z,72.18
2023-03-15T23:48:15.709Z,73.38
2023-03-15T23:50:43.680Z,74.26
2023-03-15T23:53:10.587Z,73.19
2023-03-15T23:55:37.589Z,71.52
2023-03-15T23:58:06.278Z,71.05
